Time;durP1;ratioP1;P1;durP2;ratioP2;P2;SDS_P1;SDS_P2;PMS_P1;PMS_P2;Temp;Humidity;BMP_temperature;BMP_pressure;BME280_temperature;BME280_humidity;BME280_pressure;Samples;Min_cycle;Max_cycle;Signal;HPM_P1;HPM_P2
2021/12/09 00:01:22;;;;;;;11.80;5.63;;;;;;;;;;5017626;28;20438;-61
2021/12/09 00:03:48;;;;;;;10.17;4.90;;;;;;;;;;5018463;28;20415;-61
2021/12/09 00:06:17;;;;;;;10.87;4.67;;;;;;;;;;5018914;28;20435;-61
2021/12/09 00:08:43;;;;;;;12.53;5.63;;;;;;;;;;5019079;28;20255;-61
2021/12/09 00:11:10;;;;;;;10.73;5.20;;;;;;;;;;5018500;28;20224;-61
2021/12/09 00:13:36;;;;;;;9.87;5.13;;;;;;;;;;5018203;28;20196;-61
2021/12/09 00:16:03;;;;;;;12.17;5.43;;;;;;;;;;5016920;28;20423;-61
2021/12/09 00:18:29;;;;;;;13.80;5.10;;;;;;;;;;5017925;28;20251;-61
2021/12/09 00:20:55;;;;;;;9.53;4.67;;;;;;;;;;5016558;28;20315;-59
2021/12/09 00:23:21;;;;;;;13.53;4.67;;;;;;;;;;5017512;28;20628;-68
2021/12/09 00:25:47;;;;;;;14.37;4.97;;;;;;;;;;5018266;28;20180;-61
2021/12/09 00:28:13;;;;;;;11.17;4.53;;;;;;;;;;5017319;28;20180;-62
2021/12/09 00:30:39;;;;;;;9.93;4.83;;;;;;;;;;5017452;28;20215;-61
2021/12/09 00:33:06;;;;;;;8.87;4.80;;;;;;;;;;5018669;28;20191;-62
2021/12/09 00:35:42;;;;;;;11.37;5.73;;;;;;;;;;5016954;28;20190;-61
2021/12/09 00:38:10;;;;;;;13.27;5.57;;;;;;;;;;5018811;28;20195;-61
2021/12/09 00:40:36;;;;;;;15.83;5.77;;;;;;;;;;5018203;28;20615;-62
2021/12/09 00:43:02;;;;;;;8.93;5.30;;;;;;;;;;5017447;28;20211;-60
2021/12/09 00:45:28;;;;;;;9.67;4.60;;;;;;;;;;5018225;28;20267;-62
2021/12/09 00:47:54;;;;;;;11.17;5.07;;;;;;;;;;5017992;28;20870;-62
2021/12/09 00:50:20;;;;;;;23.43;7.33;;;;;;;;;;5018371;28;20208;-61
2021/12/09 00:52:47;;;;;;;20.67;8.57;;;;;;;;;;5017751;28;20231;-62
2021/12/09 00:55:13;;;;;;;19.20;7.37;;;;;;;;;;5017563;28;20415;-61
2021/12/09 00:57:40;;;;;;;15.77;8.33;;;;;;;;;;5018032;28;20789;-61
2021/12/09 01:00:08;;;;;;;14.63;7.47;;;;;;;;;;5017729;28;20474;-61
2021/12/09 01:02:34;;;;;;;18.40;6.93;;;;;;;;;;5018091;28;20251;-60
2021/12/09 01:05:00;;;;;;;11.27;6.70;;;;;;;;;;5017364;28;20671;-61
2021/12/09 01:07:26;;;;;;;10.93;6.33;;;;;;;;;;5018022;28;20695;-62
2021/12/09 01:09:52;;;;;;;16.67;6.47;;;;;;;;;;5017257;28;20419;-61
2021/12/09 01:12:18;;;;;;;16.87;7.00;;;;;;;;;;5015836;28;20194;-61
2021/12/09 01:14:44;;;;;;;15.00;5.70;;;;;;;;;;5017977;28;20191;-60
2021/12/09 01:17:11;;;;;;;11.53;5.10;;;;;;;;;;5017440;28;20180;-62
2021/12/09 01:19:37;;;;;;;8.53;5.40;;;;;;;;;;5015942;28;20470;-61
2021/12/09 01:22:03;;;;;;;10.27;4.97;;;;;;;;;;5017988;28;20404;-61
2021/12/09 01:24:29;;;;;;;7.90;4.83;;;;;;;;;;5017676;28;20427;-63
2021/12/09 01:26:57;;;;;;;9.73;5.83;;;;;;;;;;5017086;28;20430;-60
2021/12/09 01:29:32;;;;;;;12.77;6.07;;;;;;;;;;5016079;28;20599;-62
2021/12/09 01:32:02;;;;;;;12.50;6.03;;;;;;;;;;5017808;28;20410;-61
2021/12/09 01:34:29;;;;;;;11.73;5.53;;;;;;;;;;5016223;28;20517;-61
2021/12/09 01:36:55;;;;;;;15.03;5.50;;;;;;;;;;5017586;28;20414;-60
2021/12/09 01:39:21;;;;;;;13.93;5.67;;;;;;;;;;5017754;28;20827;-61
2021/12/09 01:41:47;;;;;;;10.20;5.33;;;;;;;;;;5017784;28;20338;-61
2021/12/09 01:44:14;;;;;;;11.60;5.40;;;;;;;;;;5017515;28;20413;-61
2021/12/09 01:46:40;;;;;;;12.57;5.47;;;;;;;;;;5017567;28;20439;-61
2021/12/09 01:49:06;;;;;;;9.40;5.57;;;;;;;;;;5018258;28;20419;-61
2021/12/09 01:51:32;;;;;;;11.27;6.17;;;;;;;;;;5017972;28;20435;-61
2021/12/09 01:53:58;;;;;;;12.20;5.50;;;;;;;;;;5039768;23;20502;-63
2021/12/09 01:56:25;;;;;;;12.23;5.73;;;;;;;;;;5013200;28;20411;-64
2021/12/09 01:58:53;;;;;;;9.93;5.17;;;;;;;;;;5014611;28;20203;-63
2021/12/09 02:01:19;;;;;;;13.53;5.80;;;;;;;;;;5014497;28;20420;-63
2021/12/09 02:03:46;;;;;;;11.13;5.10;;;;;;;;;;5013284;28;20478;-64
2021/12/09 02:06:12;;;;;;;9.00;4.53;;;;;;;;;;5014295;28;20442;-64
2021/12/09 02:08:38;;;;;;;14.87;4.60;;;;;;;;;;5012898;28;20411;-64
2021/12/09 02:11:04;;;;;;;8.50;4.90;;;;;;;;;;5014414;28;20659;-64
2021/12/09 02:13:30;;;;;;;11.10;5.13;;;;;;;;;;5014072;28;20614;-63
2021/12/09 02:15:57;;;;;;;13.80;4.57;;;;;;;;;;5014291;28;20418;-63
2021/12/09 02:18:23;;;;;;;11.53;4.63;;;;;;;;;;5014050;28;20898;-64
2021/12/09 02:21:08;;;;;;;7.83;3.97;;;;;;;;;;5012752;28;20463;-63
2021/12/09 02:23:34;;;;;;;10.93;4.57;;;;;;;;;;5014302;28;20423;-64
2021/12/09 02:26:00;;;;;;;9.17;5.03;;;;;;;;;;5014426;28;20410;-64
2021/12/09 02:28:26;;;;;;;9.70;5.60;;;;;;;;;;5012833;28;20187;-63
2021/12/09 02:30:53;;;;;;;11.53;5.07;;;;;;;;;;5014103;28;20266;-63
2021/12/09 02:33:19;;;;;;;12.47;4.57;;;;;;;;;;5013682;28;20438;-63
2021/12/09 02:35:45;;;;;;;13.17;6.30;;;;;;;;;;5013951;28;20175;-64
2021/12/09 02:38:11;;;;;;;10.13;5.60;;;;;;;;;;5013191;28;20426;-63
2021/12/09 02:40:37;;;;;;;13.40;5.47;;;;;;;;;;5012477;28;20228;-63
2021/12/09 02:43:08;;;;;;;11.30;5.23;;;;;;;;;;5013783;28;20519;-64
2021/12/09 02:45:34;;;;;;;11.27;5.67;;;;;;;;;;5013991;28;20172;-64
2021/12/09 02:48:00;;;;;;;9.47;4.97;;;;;;;;;;5013914;28;20186;-63
2021/12/09 02:50:26;;;;;;;15.47;5.10;;;;;;;;;;5013963;28;20887;-64
2021/12/09 02:52:52;;;;;;;8.33;4.90;;;;;;;;;;5030070;28;20219;-64
2021/12/09 02:55:18;;;;;;;10.90;5.00;;;;;;;;;;5032794;28;20644;-64
2021/12/09 02:57:44;;;;;;;10.87;4.60;;;;;;;;;;5035002;28;20240;-64
2021/12/09 03:00:10;;;;;;;17.13;5.33;;;;;;;;;;5035590;28;20234;-64
2021/12/09 03:02:36;;;;;;;15.90;4.73;;;;;;;;;;5023121;28;20182;-64
2021/12/09 03:05:04;;;;;;;8.73;4.70;;;;;;;;;;5019355;28;20910;-63
2021/12/09 03:07:34;;;;;;;12.17;4.97;;;;;;;;;;5017169;28;20953;-63
2021/12/09 03:10:03;;;;;;;10.23;5.63;;;;;;;;;;5017953;28;20226;-64
2021/12/09 03:12:31;;;;;;;12.27;5.20;;;;;;;;;;5017476;28;20417;-63
2021/12/09 03:14:57;;;;;;;9.73;5.33;;;;;;;;;;5017536;28;20418;-64
2021/12/09 03:17:23;;;;;;;11.67;4.77;;;;;;;;;;5017128;28;20422;-63
2021/12/09 03:19:50;;;;;;;10.83;5.27;;;;;;;;;;5017458;28;20250;-63
2021/12/09 03:22:16;;;;;;;10.20;5.10;;;;;;;;;;5017131;28;20176;-63
2021/12/09 03:24:42;;;;;;;7.83;4.60;;;;;;;;;;5016898;28;20431;-64
2021/12/09 03:27:08;;;;;;;11.67;5.13;;;;;;;;;;5017078;28;20268;-64
2021/12/09 03:29:34;;;;;;;8.40;4.87;;;;;;;;;;5016813;28;20429;-64
2021/12/09 03:32:02;;;;;;;10.93;5.10;;;;;;;;;;5015683;28;20415;-63
2021/12/09 03:34:29;;;;;;;14.80;5.27;;;;;;;;;;5017119;28;20470;-64
2021/12/09 03:36:56;;;;;;;10.60;5.00;;;;;;;;;;5015651;28;20418;-63
2021/12/09 03:39:26;;;;;;;7.90;4.87;;;;;;;;;;5016752;28;20466;-63
2021/12/09 03:41:53;;;;;;;15.57;5.67;;;;;;;;;;5015338;28;20915;-64
2021/12/09 03:44:19;;;;;;;10.73;5.13;;;;;;;;;;5016527;28;20827;-63
2021/12/09 03:46:45;;;;;;;9.20;4.80;;;;;;;;;;5016518;28;20556;-63
2021/12/09 03:49:11;;;;;;;14.67;5.30;;;;;;;;;;5015375;28;20229;-64
2021/12/09 03:51:38;;;;;;;12.97;5.27;;;;;;;;;;5015361;28;20275;-64
2021/12/09 03:54:05;;;;;;;11.53;6.53;;;;;;;;;;5015274;28;20462;-64
2021/12/09 03:56:31;;;;;;;10.10;5.23;;;;;;;;;;5015464;28;20426;-63
2021/12/09 03:58:57;;;;;;;11.77;5.07;;;;;;;;;;5015550;28;20466;-64
2021/12/09 04:01:23;;;;;;;9.20;5.00;;;;;;;;;;5016568;28;20409;-63
2021/12/09 04:03:49;;;;;;;15.60;5.60;;;;;;;;;;5016392;28;20616;-63
2021/12/09 04:06:16;;;;;;;12.73;5.03;;;;;;;;;;5016305;28;20403;-63
2021/12/09 04:08:42;;;;;;;9.80;4.80;;;;;;;;;;5015352;28;20199;-63
2021/12/09 04:11:10;;;;;;;9.77;4.53;;;;;;;;;;5016101;28;20558;-64
2021/12/09 04:13:36;;;;;;;17.83;5.70;;;;;;;;;;5015084;28;20493;-63
2021/12/09 04:16:02;;;;;;;7.83;4.70;;;;;;;;;;5016182;28;20414;-63
2021/12/09 04:18:28;;;;;;;9.60;5.57;;;;;;;;;;5016029;28;20426;-63
2021/12/09 04:20:54;;;;;;;9.47;5.17;;;;;;;;;;5016151;28;20467;-64
2021/12/09 04:23:20;;;;;;;14.00;5.63;;;;;;;;;;5016415;28;20200;-63
2021/12/09 04:25:46;;;;;;;9.07;5.47;;;;;;;;;;5016200;28;20183;-64
2021/12/09 04:28:12;;;;;;;6.97;4.50;;;;;;;;;;5014830;28;20266;-65
2021/12/09 04:30:40;;;;;;;13.50;5.17;;;;;;;;;;5014604;28;20188;-63
2021/12/09 04:33:06;;;;;;;11.70;5.73;;;;;;;;;;5016368;28;20935;-63
2021/12/09 04:35:32;;;;;;;14.93;5.10;;;;;;;;;;5016284;28;20883;-63
2021/12/09 04:37:58;;;;;;;12.17;5.17;;;;;;;;;;5016076;28;20415;-63
2021/12/09 04:40:24;;;;;;;10.93;5.47;;;;;;;;;;5015801;28;20485;-63
2021/12/09 04:42:50;;;;;;;15.03;6.23;;;;;;;;;;5014525;28;20279;-63
2021/12/09 04:45:16;;;;;;;15.23;5.80;;;;;;;;;;5015860;28;20442;-63
2021/12/09 04:47:42;;;;;;;12.50;5.23;;;;;;;;;;5016132;28;20186;-64
2021/12/09 04:50:09;;;;;;;12.13;5.47;;;;;;;;;;5014341;28;20674;-64
2021/12/09 04:52:35;;;;;;;13.67;5.57;;;;;;;;;;5016124;28;20476;-65
2021/12/09 04:55:01;;;;;;;10.87;5.40;;;;;;;;;;5014223;28;20419;-63
2021/12/09 04:57:27;;;;;;;9.67;6.00;;;;;;;;;;5015558;28;20422;-63
2021/12/09 04:59:53;;;;;;;11.67;5.60;;;;;;;;;;5013948;28;20260;-64
2021/12/09 05:02:30;;;;;;;13.73;6.03;;;;;;;;;;5015867;28;20407;-63
2021/12/09 05:04:56;;;;;;;10.50;5.57;;;;;;;;;;5015603;28;20761;-63
2021/12/09 05:07:22;;;;;;;10.93;5.57;;;;;;;;;;5015382;28;20494;-64
2021/12/09 05:09:52;;;;;;;10.00;5.73;;;;;;;;;;5015527;28;20186;-64
2021/12/09 05:12:19;;;;;;;14.17;5.90;;;;;;;;;;5014262;28;20497;-64
2021/12/09 05:14:45;;;;;;;12.47;6.20;;;;;;;;;;5013906;28;20509;-63
2021/12/09 05:17:11;;;;;;;16.27;6.10;;;;;;;;;;5015331;28;20415;-64
2021/12/09 05:19:37;;;;;;;13.30;5.70;;;;;;;;;;5015017;28;20462;-63
2021/12/09 05:22:04;;;;;;;13.67;6.67;;;;;;;;;;5013743;28;20184;-64
2021/12/09 05:24:34;;;;;;;14.50;5.87;;;;;;;;;;5013781;28;20481;-64
2021/12/09 05:27:00;;;;;;;14.37;5.50;;;;;;;;;;5015164;28;20899;-64
2021/12/09 05:29:32;;;;;;;13.70;5.73;;;;;;;;;;5013706;28;20419;-63
2021/12/09 05:32:07;;;;;;;13.00;6.50;;;;;;;;;;5015582;28;20445;-64
2021/12/09 05:34:34;;;;;;;12.20;6.03;;;;;;;;;;5015071;28;20434;-64
2021/12/09 05:37:01;;;;;;;15.90;7.07;;;;;;;;;;5014901;28;20411;-64
2021/12/09 05:39:27;;;;;;;18.53;6.57;;;;;;;;;;5013625;28;20474;-63
2021/12/09 05:41:54;;;;;;;12.80;6.23;;;;;;;;;;5014907;28;20907;-64
2021/12/09 05:44:19;;;;;;;17.63;6.87;;;;;;;;;;5013580;28;20290;-63
2021/12/09 05:46:46;;;;;;;18.23;6.87;;;;;;;;;;5014998;28;20516;-63
2021/12/09 05:49:13;;;;;;;12.63;6.67;;;;;;;;;;5014738;28;20664;-63
2021/12/09 05:51:40;;;;;;;8.87;5.70;;;;;;;;;;5014627;28;20418;-63
2021/12/09 05:54:07;;;;;;;10.67;6.37;;;;;;;;;;5014894;28;20446;-63
2021/12/09 05:56:33;;;;;;;11.03;5.70;;;;;;;;;;5014976;28;20442;-63
2021/12/09 05:59:00;;;;;;;14.67;5.80;;;;;;;;;;5013208;28;20429;-63
2021/12/09 06:01:26;;;;;;;10.87;5.90;;;;;;;;;;5015231;28;20407;-63
2021/12/09 06:03:52;;;;;;;13.97;5.77;;;;;;;;;;5016257;28;20423;-63
2021/12/09 06:06:19;;;;;;;12.30;5.77;;;;;;;;;;5013721;28;20176;-63
2021/12/09 06:08:45;;;;;;;11.30;5.70;;;;;;;;;;5013412;28;20415;-63
2021/12/09 06:11:11;;;;;;;15.03;6.53;;;;;;;;;;5014666;28;20895;-63
2021/12/09 06:13:38;;;;;;;14.87;6.03;;;;;;;;;;5014965;28;20485;-63
2021/12/09 06:16:04;;;;;;;12.63;5.83;;;;;;;;;;5013105;28;20430;-63
2021/12/09 06:18:31;;;;;;;15.37;6.50;;;;;;;;;;5014096;28;20785;-63
2021/12/09 06:20:57;;;;;;;12.20;6.00;;;;;;;;;;5013245;28;20451;-63
2021/12/09 06:23:23;;;;;;;9.50;6.50;;;;;;;;;;5012945;28;20446;-63
2021/12/09 06:25:52;;;;;;;16.20;6.83;;;;;;;;;;5013276;28;20423;-64
2021/12/09 06:28:19;;;;;;;11.87;6.53;;;;;;;;;;5014159;28;20415;-63
2021/12/09 06:30:45;;;;;;;15.23;8.27;;;;;;;;;;5014651;28;20942;-63
2021/12/09 06:33:11;;;;;;;13.07;7.10;;;;;;;;;;5015811;28;20492;-63
2021/12/09 06:35:38;;;;;;;17.53;8.00;;;;;;;;;;5016992;28;20505;-63
2021/12/09 06:38:05;;;;;;;16.80;9.97;;;;;;;;;;5018565;28;20432;-63
2021/12/09 06:40:31;;;;;;;19.63;10.27;;;;;;;;;;5017060;28;20465;-63
2021/12/09 06:42:57;;;;;;;15.93;9.60;;;;;;;;;;5017141;28;20439;-63
2021/12/09 06:45:24;;;;;;;18.87;9.03;;;;;;;;;;5016958;28;20418;-63
2021/12/09 06:47:50;;;;;;;17.93;9.17;;;;;;;;;;5017980;28;20497;-63
2021/12/09 06:50:17;;;;;;;18.00;8.43;;;;;;;;;;5018215;28;20418;-65
2021/12/09 06:52:44;;;;;;;21.27;8.43;;;;;;;;;;5017720;28;20442;-63
2021/12/09 06:55:11;;;;;;;10.27;7.20;;;;;;;;;;5018358;28;20399;-63
2021/12/09 06:57:38;;;;;;;15.53;7.23;;;;;;;;;;5017929;28;20414;-63
2021/12/09 07:00:08;;;;;;;20.47;8.10;;;;;;;;;;5018156;28;20824;-63
2021/12/09 07:02:34;;;;;;;15.10;8.87;;;;;;;;;;5017899;28;20469;-63
2021/12/09 07:05:00;;;;;;;13.67;7.43;;;;;;;;;;5017891;28;20403;-63
2021/12/09 07:07:26;;;;;;;13.23;7.27;;;;;;;;;;5017791;28;20423;-63
2021/12/09 07:09:52;;;;;;;13.50;7.07;;;;;;;;;;5019728;28;20848;-63
2021/12/09 07:12:18;;;;;;;17.13;6.73;;;;;;;;;;5016442;28;20318;-63
2021/12/09 07:14:44;;;;;;;13.20;5.53;;;;;;;;;;5016217;28;20211;-63
2021/12/09 07:17:11;;;;;;;14.97;6.57;;;;;;;;;;5018480;28;20743;-63
2021/12/09 07:19:37;;;;;;;13.83;6.77;;;;;;;;;;5017519;28;20552;-63
2021/12/09 07:22:04;;;;;;;15.10;6.37;;;;;;;;;;5016319;28;20419;-63
2021/12/09 07:24:30;;;;;;;9.30;6.53;;;;;;;;;;5016048;28;20522;-63
2021/12/09 07:26:57;;;;;;;16.57;7.77;;;;;;;;;;5015805;28;20422;-63
2021/12/09 07:29:23;;;;;;;12.93;7.63;;;;;;;;;;5015906;28;20430;-63
2021/12/09 07:31:49;;;;;;;18.57;7.30;;;;;;;;;;5015630;28;20430;-63
2021/12/09 07:34:16;;;;;;;11.77;6.77;;;;;;;;;;5017085;28;20430;-64
2021/12/09 07:36:42;;;;;;;20.50;8.57;;;;;;;;;;5016884;28;20462;-63
2021/12/09 07:39:08;;;;;;;11.87;7.33;;;;;;;;;;5017220;28;20529;-63
2021/12/09 07:41:34;;;;;;;19.57;8.00;;;;;;;;;;5017108;28;20187;-63
2021/12/09 07:44:02;;;;;;;17.30;8.80;;;;;;;;;;5017069;28;20192;-63
2021/12/09 07:46:28;;;;;;;13.80;7.63;;;;;;;;;;5015880;28;20835;-63
2021/12/09 07:48:54;;;;;;;16.77;8.50;;;;;;;;;;5017018;28;20403;-63
2021/12/09 07:51:20;;;;;;;13.07;7.70;;;;;;;;;;5017368;28;20429;-63
2021/12/09 07:53:46;;;;;;;16.93;7.97;;;;;;;;;;5017021;28;20231;-63
2021/12/09 07:56:12;;;;;;;12.50;7.73;;;;;;;;;;5016740;28;20180;-63
2021/12/09 07:58:38;;;;;;;19.67;8.00;;;;;;;;;;5017569;28;20180;-63
2021/12/09 08:01:04;;;;;;;16.27;7.43;;;;;;;;;;5015476;28;20569;-63
2021/12/09 08:03:30;;;;;;;14.03;7.93;;;;;;;;;;5015621;28;20493;-63
2021/12/09 08:05:56;;;;;;;19.23;8.27;;;;;;;;;;5016404;28;20411;-63
2021/12/09 08:08:22;;;;;;;15.13;8.20;;;;;;;;;;5017389;28;20415;-63
2021/12/09 08:10:49;;;;;;;11.97;6.77;;;;;;;;;;5016159;28;20469;-63
2021/12/09 08:13:15;;;;;;;12.80;6.80;;;;;;;;;;5016376;28;20203;-63
2021/12/09 08:15:45;;;;;;;12.37;7.00;;;;;;;;;;5016476;28;20419;-63
2021/12/09 08:20:44;;;;;;;13.93;7.13;;;;;;;;;;5016605;28;20206;-63
2021/12/09 08:23:10;;;;;;;10.30;6.30;;;;;;;;;;5015196;28;20550;-63
2021/12/09 08:25:36;;;;;;;15.50;7.57;;;;;;;;;;5016570;28;20446;-63
2021/12/09 08:28:03;;;;;;;13.13;7.00;;;;;;;;;;5015016;28;20265;-63
2021/12/09 08:30:29;;;;;;;18.80;8.50;;;;;;;;;;5016637;28;20458;-63
2021/12/09 08:32:55;;;;;;;12.33;7.63;;;;;;;;;;5016233;28;20430;-63
2021/12/09 08:35:21;;;;;;;13.73;7.57;;;;;;;;;;5014946;28;20419;-63
2021/12/09 08:37:48;;;;;;;15.50;7.33;;;;;;;;;;5016559;28;20454;-63
2021/12/09 08:40:15;;;;;;;12.87;7.27;;;;;;;;;;5033653;28;20508;-64
2021/12/09 08:42:42;;;;;;;14.70;7.50;;;;;;;;;;5036345;28;20406;-64
2021/12/09 08:45:10;;;;;;;19.23;8.87;;;;;;;;;;5038637;28;20470;-63
2021/12/09 08:47:37;;;;;;;15.63;8.50;;;;;;;;;;5037546;28;20403;-64
2021/12/09 08:50:03;;;;;;;12.90;8.20;;;;;;;;;;5019760;28;20411;-63
2021/12/09 08:52:29;;;;;;;13.83;7.53;;;;;;;;;;5014780;28;20789;-63
2021/12/09 08:54:55;;;;;;;14.20;7.50;;;;;;;;;;5013901;28;20465;-64
2021/12/09 08:57:22;;;;;;;15.53;7.40;;;;;;;;;;5014361;28;20192;-63
2021/12/09 08:59:48;;;;;;;13.63;7.63;;;;;;;;;;5015688;28;20204;-63
2021/12/09 09:02:14;;;;;;;14.13;6.70;;;;;;;;;;5015281;28;20778;-63
2021/12/09 09:04:40;;;;;;;10.47;6.50;;;;;;;;;;5015756;28;20437;-63
2021/12/09 09:07:07;;;;;;;15.27;6.27;;;;;;;;;;5014023;28;20184;-64
2021/12/09 09:09:34;;;;;;;13.53;6.87;;;;;;;;;;5014069;28;20188;-63
2021/12/09 09:12:01;;;;;;;15.53;6.73;;;;;;;;;;5015229;28;20513;-63
2021/12/09 09:14:27;;;;;;;12.37;6.43;;;;;;;;;;5015265;28;20430;-63
2021/12/09 09:16:53;;;;;;;16.90;7.50;;;;;;;;;;5013964;28;20442;-63
2021/12/09 09:19:19;;;;;;;17.83;7.27;;;;;;;;;;5015421;28;20253;-63
2021/12/09 09:21:45;;;;;;;15.83;6.87;;;;;;;;;;5013805;28;20213;-63
2021/12/09 09:24:11;;;;;;;10.60;6.17;;;;;;;;;;5015191;28;20655;-63
2021/12/09 09:26:38;;;;;;;12.33;6.70;;;;;;;;;;5015227;28;20415;-63
2021/12/09 09:29:04;;;;;;;13.20;6.93;;;;;;;;;;5014747;28;20407;-63
2021/12/09 09:31:32;;;;;;;14.03;7.57;;;;;;;;;;5039189;23;20497;-62
2021/12/09 09:34:03;;;;;;;13.30;5.87;;;;;;;;;;5018372;28;20172;-62
2021/12/09 09:36:29;;;;;;;10.40;6.20;;;;;;;;;;5016689;28;20804;-60
2021/12/09 09:39:06;;;;;;;15.07;6.77;;;;;;;;;;5016246;28;20212;-60
2021/12/09 09:41:33;;;;;;;11.97;6.43;;;;;;;;;;5017764;28;20226;-61
2021/12/09 09:44:11;;;;;;;10.33;6.00;;;;;;;;;;5016182;28;20180;-62
2021/12/09 09:46:37;;;;;;;9.40;6.60;;;;;;;;;;5016592;28;20410;-61
2021/12/09 09:49:04;;;;;;;10.50;5.73;;;;;;;;;;5016275;28;20180;-61
2021/12/09 09:51:30;;;;;;;13.57;5.97;;;;;;;;;;5015871;28;20211;-62
2021/12/09 09:53:56;;;;;;;13.33;5.57;;;;;;;;;;5017588;28;20180;-60
2021/12/09 09:56:24;;;;;;;10.80;5.63;;;;;;;;;;5015284;28;20419;-62
2021/12/09 09:59:09;;;;;;;12.83;5.03;;;;;;;;;;5017155;28;20465;-60
2021/12/09 10:01:36;;;;;;;14.30;6.07;;;;;;;;;;5015715;28;20207;-61
2021/12/09 10:04:57;;;;;;;12.80;6.23;;;;;;;;;;5016056;28;20188;-60
2021/12/09 10:06:50;;;;;;;13.90;5.67;;;;;;;;;;5006336;28;20433;-59
2021/12/09 10:09:16;;;;;;;10.80;5.70;;;;;;;;;;5016240;28;20175;-60
2021/12/09 10:11:43;;;;;;;13.43;5.53;;;;;;;;;;5017547;28;20278;-64
2021/12/09 10:14:09;;;;;;;23.47;12.33;;;;;;;;;;5016839;28;20176;-61
2021/12/09 10:16:38;;;;;;;23.13;13.10;;;;;;;;;;5015823;28;20183;-61
2021/12/09 10:19:12;;;;;;;26.50;12.97;;;;;;;;;;5016124;28;20172;-61
2021/12/09 10:21:38;;;;;;;34.87;17.47;;;;;;;;;;5016129;28;20200;-61
2021/12/09 10:24:05;;;;;;;21.73;11.77;;;;;;;;;;5017007;28;20183;-61
2021/12/09 10:26:36;;;;;;;26.87;12.47;;;;;;;;;;5015604;28;20180;-61
2021/12/09 10:29:17;;;;;;;22.53;11.90;;;;;;;;;;5017189;28;20644;-60
2021/12/09 10:31:46;;;;;;;14.87;6.73;;;;;;;;;;5016833;28;20211;-60
2021/12/09 10:34:19;;;;;;;12.97;6.60;;;;;;;;;;5016728;28;20176;-60
2021/12/09 10:36:56;;;;;;;15.27;8.13;;;;;;;;;;5017059;28;20243;-61
2021/12/09 10:39:25;;;;;;;20.30;9.00;;;;;;;;;;5017180;28;20221;-60
2021/12/09 10:41:51;;;;;;;13.70;7.67;;;;;;;;;;5017047;28;20200;-62
2021/12/09 10:44:20;;;;;;;12.57;6.23;;;;;;;;;;5016840;28;20206;-61
2021/12/09 10:46:52;;;;;;;13.27;6.80;;;;;;;;;;5017509;28;20172;-61
2021/12/09 10:49:19;;;;;;;11.13;6.10;;;;;;;;;;5017226;28;20168;-60
2021/12/09 10:51:56;;;;;;;11.37;6.87;;;;;;;;;;5015463;28;20686;-60
2021/12/09 10:54:36;;;;;;;14.93;7.40;;;;;;;;;;5014770;28;20176;-61
2021/12/09 10:57:21;;;;;;;9.03;5.17;;;;;;;;;;5016050;28;20203;-60
2021/12/09 10:59:47;;;;;;;11.60;5.43;;;;;;;;;;5016358;28;20656;-62
2021/12/09 11:02:13;;;;;;;8.83;5.67;;;;;;;;;;5017119;28;20215;-60
2021/12/09 11:04:39;;;;;;;9.67;5.87;;;;;;;;;;5015224;28;20649;-60
2021/12/09 11:07:27;;;;;;;11.00;5.77;;;;;;;;;;5016350;28;20195;-62
2021/12/09 11:10:13;;;;;;;11.13;5.47;;;;;;;;;;5016665;28;20168;-60
2021/12/09 11:12:39;;;;;;;8.00;5.37;;;;;;;;;;5015959;28;20200;-61
2021/12/09 11:15:05;;;;;;;9.17;5.23;;;;;;;;;;5015118;28;20206;-61
2021/12/09 11:17:36;;;;;;;9.60;5.40;;;;;;;;;;5016737;28;20644;-61
2021/12/09 11:20:03;;;;;;;13.23;5.63;;;;;;;;;;5019914;28;20196;-60
2021/12/09 11:22:31;;;;;;;11.40;5.70;;;;;;;;;;5019810;28;20572;-60
2021/12/09 11:27:44;;;;;;;8.30;5.67;;;;;;;;;;5765524;23;20219;-65
2021/12/09 11:30:14;;;;;;;7.53;5.00;;;;;;;;;;5018515;28;20242;-65
2021/12/09 11:35:14;;;;;;;9.53;5.00;;;;;;;;;;5036543;28;20179;-64
2021/12/09 11:37:47;;;;;;;8.57;4.97;;;;;;;;;;5036174;28;20203;-65
2021/12/09 11:40:18;;;;;;;9.47;4.87;;;;;;;;;;5036398;28;20256;-65
2021/12/09 11:42:51;;;;;;;10.53;5.93;;;;;;;;;;5018558;28;20173;-65
2021/12/09 11:45:19;;;;;;;8.70;4.80;;;;;;;;;;5018584;28;20246;-64
2021/12/09 11:47:46;;;;;;;12.53;6.10;;;;;;;;;;5036068;28;20214;-64
2021/12/09 11:50:14;;;;;;;9.83;6.30;;;;;;;;;;5036204;28;20222;-64
2021/12/09 11:52:43;;;;;;;18.50;5.10;;;;;;;;;;5036073;28;20183;-64
2021/12/09 11:55:11;;;;;;;12.33;6.37;;;;;;;;;;5035804;28;20198;-64
2021/12/09 11:57:41;;;;;;;10.90;5.13;;;;;;;;;;5017926;28;20211;-64
2021/12/09 12:11:56;;;;;;;12.67;5.10;;;;;;;;;;5037683;28;20229;-64
2021/12/09 12:14:30;;;;;;;11.43;5.33;;;;;;;;;;5037813;28;20171;-64
2021/12/09 12:17:05;;;;;;;13.30;5.80;;;;;;;;;;5035366;28;20301;-64
2021/12/09 12:19:50;;;;;;;9.07;4.90;;;;;;;;;;5035734;28;20218;-64
2021/12/09 12:22:44;;;;;;;9.27;4.60;;;;;;;;;;5035349;28;20178;-64
2021/12/09 12:25:24;;;;;;;9.73;5.30;;;;;;;;;;5035278;28;20298;-64
2021/12/09 12:28:05;;;;;;;13.33;6.33;;;;;;;;;;5017322;28;20206;-64
2021/12/09 12:33:51;;;;;;;13.63;5.50;;;;;;;;;;5035493;28;20168;-64
2021/12/09 12:36:29;;;;;;;14.80;5.83;;;;;;;;;;5035447;28;20178;-64
2021/12/09 12:39:14;;;;;;;11.30;6.20;;;;;;;;;;5017225;28;20214;-64
2021/12/09 12:42:03;;;;;;;10.83;6.70;;;;;;;;;;5035304;28;20195;-64
2021/12/09 12:44:30;;;;;;;9.80;5.50;;;;;;;;;;5017234;28;20187;-64
2021/12/09 12:47:11;;;;;;;17.13;5.97;;;;;;;;;;5034862;28;20221;-64
2021/12/09 12:49:39;;;;;;;10.77;6.00;;;;;;;;;;5034690;28;20267;-65
2021/12/09 12:52:10;;;;;;;14.30;6.13;;;;;;;;;;5060948;22;20246;-62
2021/12/09 12:54:54;;;;;;;9.30;5.23;;;;;;;;;;5035692;28;20529;-61
2021/12/09 12:57:29;;;;;;;12.73;6.97;;;;;;;;;;5017708;28;20542;-62
2021/12/09 13:00:07;;;;;;;13.60;5.67;;;;;;;;;;5035438;28;20739;-62
2021/12/09 13:05:39;;;;;;;8.40;5.50;;;;;;;;;;5036790;28;20172;-62
2021/12/09 13:08:28;;;;;;;12.83;6.10;;;;;;;;;;5036925;28;20185;-62
2021/12/09 13:19:40;;;;;;;9.60;5.20;;;;;;;;;;5035664;28;20163;-61
2021/12/09 13:22:00;;;;;;;7.63;3.90;;;;;;;;;;5031236;28;20226;-62
2021/12/09 13:24:46;;;;;;;7.20;4.83;;;;;;;;;;5017649;28;20535;-62
2021/12/09 13:39:26;;;;;;;9.13;4.63;;;;;;;;;;5004074;28;20190;-61
2021/12/09 13:49:39;;;;;;;7.77;5.80;;;;;;;;;;5035073;28;20164;-61
2021/12/09 13:55:08;;;;;;;6.73;4.63;;;;;;;;;;4935205;29;20677;-62
2021/12/09 13:57:39;;;;;;;4.93;3.90;;;;;;;;;;5016209;28;20191;-61
2021/12/09 14:00:08;;;;;;;5.17;4.40;;;;;;;;;;5034858;28;20233;-61
2021/12/09 14:02:34;;;;;;;5.33;4.67;;;;;;;;;;5034948;28;20198;-62
2021/12/09 14:05:00;;;;;;;6.37;5.10;;;;;;;;;;5034907;28;20179;-62
2021/12/09 14:07:27;;;;;;;9.03;6.67;;;;;;;;;;5033938;28;20179;-61
2021/12/09 14:10:04;;;;;;;4.67;4.10;;;;;;;;;;5034531;28;20527;-62
2021/12/09 14:12:37;;;;;;;4.80;4.13;;;;;;;;;;5034234;28;20569;-62
2021/12/09 14:15:13;;;;;;;4.67;4.13;;;;;;;;;;5017383;28;20197;-62
2021/12/09 14:17:42;;;;;;;4.57;4.10;;;;;;;;;;5029116;28;20174;-62
2021/12/09 14:20:18;;;;;;;6.63;4.60;;;;;;;;;;5021651;28;20678;-62
2021/12/09 14:22:48;;;;;;;5.73;4.10;;;;;;;;;;5030297;28;20228;-61
2021/12/09 14:25:20;;;;;;;6.47;4.73;;;;;;;;;;5015972;28;20546;-62
2021/12/09 14:27:49;;;;;;;7.30;4.80;;;;;;;;;;5015983;28;20237;-61
2021/12/09 14:30:15;;;;;;;8.07;5.17;;;;;;;;;;5033588;28;20187;-61
2021/12/09 14:32:46;;;;;;;10.20;8.43;;;;;;;;;;5015908;28;20183;-62
2021/12/09 14:35:18;;;;;;;5.77;5.17;;;;;;;;;;5033681;28;20160;-62
2021/12/09 14:37:48;;;;;;;10.13;5.03;;;;;;;;;;5033577;28;20191;-62
2021/12/09 14:40:18;;;;;;;6.43;5.30;;;;;;;;;;5033141;28;20296;-61
2021/12/09 14:42:56;;;;;;;6.43;5.07;;;;;;;;;;5034129;28;20183;-62
2021/12/09 14:45:23;;;;;;;9.00;6.77;;;;;;;;;;5034429;28;20174;-62
2021/12/09 14:47:56;;;;;;;8.40;5.13;;;;;;;;;;5033428;28;20206;-62
2021/12/09 14:50:29;;;;;;;10.57;7.17;;;;;;;;;;5033035;28;20570;-62
2021/12/09 14:52:56;;;;;;;7.50;5.97;;;;;;;;;;5016530;28;20175;-61
2021/12/09 14:55:25;;;;;;;11.73;7.87;;;;;;;;;;5037271;28;20552;-62
2021/12/09 14:57:51;;;;;;;8.07;5.80;;;;;;;;;;5037721;28;20179;-61
2021/12/09 15:00:38;;;;;;;10.13;7.90;;;;;;;;;;5037270;28;20210;-61
2021/12/09 15:03:05;;;;;;;12.37;9.67;;;;;;;;;;5020608;28;20270;-62
2021/12/09 15:05:33;;;;;;;10.83;7.47;;;;;;;;;;5036893;28;20175;-62
2021/12/09 15:08:06;;;;;;;6.60;5.70;;;;;;;;;;5019258;28;20171;-61
2021/12/09 15:10:33;;;;;;;9.63;5.17;;;;;;;;;;5037430;28;20183;-62
2021/12/09 15:13:00;;;;;;;8.33;5.37;;;;;;;;;;5036980;28;20186;-62
2021/12/09 15:15:27;;;;;;;25.93;14.93;;;;;;;;;;5038655;28;20206;-62
2021/12/09 15:17:58;;;;;;;11.90;7.40;;;;;;;;;;5040349;28;20190;-62
2021/12/09 15:20:56;;;;;;;15.03;9.90;;;;;;;;;;5038431;28;20575;-62
2021/12/09 15:23:33;;;;;;;16.60;9.63;;;;;;;;;;5037290;28;20187;-62
2021/12/09 15:26:00;;;;;;;8.70;6.43;;;;;;;;;;5019207;28;20170;-62
2021/12/09 15:28:26;;;;;;;10.63;7.13;;;;;;;;;;5037297;28;20650;-62
2021/12/09 15:30:57;;;;;;;20.27;10.73;;;;;;;;;;5019975;28;20671;-61
2021/12/09 15:33:42;;;;;;;28.70;15.00;;;;;;;;;;5037852;28;20210;-62
2021/12/09 15:36:08;;;;;;;18.40;10.73;;;;;;;;;;5036637;28;20526;-62
2021/12/09 15:38:34;;;;;;;17.70;10.00;;;;;;;;;;5036360;28;20190;-62